sensor_id;sensor_type;location;lat;lon;timestamp;pressure;altitude;pressure_sealevel;temperature;humidity
7182;BME280;3632;42.724;23.298;2023-07-24T00:01:19;95592.16;;;23.00;72.65
7182;BME280;3632;42.724;23.298;2023-07-24T00:03:46;95593.72;;;23.01;72.48
7182;BME280;3632;42.724;23.298;2023-07-24T00:06:13;95586.47;;;22.90;70.78
7182;BME280;3632;42.724;23.298;2023-07-24T00:08:41;95587.38;;;23.03;70.38
7182;BME280;3632;42.724;23.298;2023-07-24T00:11:08;95594.16;;;23.04;70.57
7182;BME280;3632;42.724;23.298;2023-07-24T00:13:34;95592.91;;;23.00;70.52
7182;BME280;3632;42.724;23.298;2023-07-24T00:16:06;95529.84;;;22.64;70.32
7182;BME280;3632;42.724;23.298;2023-07-24T00:18:33;95589.97;;;23.03;69.85
7182;BME280;3632;42.724;23.298;2023-07-24T00:21:00;95592.41;;;23.11;69.49
7182;BME280;3632;42.724;23.298;2023-07-24T00:23:26;95602.28;;;23.22;68.54
7182;BME280;3632;42.724;23.298;2023-07-24T00:25:54;95591.13;;;23.29;68.37
7182;BME280;3632;42.724;23.298;2023-07-24T00:28:21;95596.09;;;23.23;68.15
7182;BME280;3632;42.724;23.298;2023-07-24T00:30:48;95517.38;;;22.74;68.77
7182;BME280;3632;42.724;23.298;2023-07-24T00:33:15;95598.34;;;22.99;69.79
7182;BME280;3632;42.724;23.298;2023-07-24T00:35:42;95589.47;;;22.93;70.92
7182;BME280;3632;42.724;23.298;2023-07-24T00:38:08;95592.06;;;22.93;70.84
7182;BME280;3632;42.724;23.298;2023-07-24T00:40:35;95586.63;;;22.88;70.65
7182;BME280;3632;42.724;23.298;2023-07-24T00:43:03;95486.59;;;21.71;69.64
7182;BME280;3632;42.724;23.298;2023-07-24T00:45:30;95592.03;;;22.87;69.08
7182;BME280;3632;42.724;23.298;2023-07-24T00:47:58;95586.06;;;22.93;70.09
7182;BME280;3632;42.724;23.298;2023-07-24T00:50:26;95580.50;;;22.74;70.70
7182;BME280;3632;42.724;23.298;2023-07-24T00:52:54;95251.25;;;20.44;70.50
7182;BME280;3632;42.724;23.298;2023-07-24T00:55:21;95257.25;;;20.30;70.65
7182;BME280;3632;42.724;23.298;2023-07-24T00:57:48;95582.69;;;22.71;71.19
7182;BME280;3632;42.724;23.298;2023-07-24T01:00:17;95584.56;;;22.77;70.71
7182;BME280;3632;42.724;23.298;2023-07-24T01:02:44;95589.50;;;22.72;70.08
7182;BME280;3632;42.724;23.298;2023-07-24T01:05:13;95581.44;;;22.88;69.21
7182;BME280;3632;42.724;23.298;2023-07-24T01:07:40;95570.84;;;22.68;70.53
7182;BME280;3632;42.724;23.298;2023-07-24T01:10:07;95568.81;;;22.64;70.56
7182;BME280;3632;42.724;23.298;2023-07-24T01:12:38;95571.28;;;22.51;70.83
7182;BME280;3632;42.724;23.298;2023-07-24T01:15:10;95567.34;;;22.33;71.68
7182;BME280;3632;42.724;23.298;2023-07-24T01:17:45;95538.06;;;21.68;73.40
7182;BME280;3632;42.724;23.298;2023-07-24T01:20:14;95491.97;;;21.34;73.55
7182;BME280;3632;42.724;23.298;2023-07-24T01:22:51;95337.34;;;20.09;75.11
7182;BME280;3632;42.724;23.298;2023-07-24T01:25:28;95563.72;;;21.63;75.76
7182;BME280;3632;42.724;23.298;2023-07-24T01:28:06;95561.41;;;21.53;75.91
7182;BME280;3632;42.724;23.298;2023-07-24T01:30:33;95498.34;;;20.94;76.33
7182;BME280;3632;42.724;23.298;2023-07-24T01:33:00;95164.69;;;19.07;75.25
7182;BME280;3632;42.724;23.298;2023-07-24T01:35:27;95558.16;;;21.80;74.91
7182;BME280;3632;42.724;23.298;2023-07-24T01:37:56;95574.34;;;21.97;74.32
7182;BME280;3632;42.724;23.298;2023-07-24T01:40:24;95590.31;;;22.15;73.04
7182;BME280;3632;42.724;23.298;2023-07-24T01:42:50;95625.91;;;22.36;71.77
7182;BME280;3632;42.724;23.298;2023-07-24T01:45:19;95594.41;;;22.46;71.66
7182;BME280;3632;42.724;23.298;2023-07-24T01:47:45;95578.22;;;22.22;72.40
7182;BME280;3632;42.724;23.298;2023-07-24T01:50:12;95577.84;;;21.75;74.92
7182;BME280;3632;42.724;23.298;2023-07-24T01:52:39;95575.47;;;21.59;76.15
7182;BME280;3632;42.724;23.298;2023-07-24T01:55:06;95442.69;;;20.75;75.75
7182;BME280;3632;42.724;23.298;2023-07-24T01:57:34;95582.06;;;21.76;75.27
7182;BME280;3632;42.724;23.298;2023-07-24T02:00:01;95586.06;;;21.78;75.59
7182;BME280;3632;42.724;23.298;2023-07-24T02:02:29;95557.03;;;21.24;75.73
7182;BME280;3632;42.724;23.298;2023-07-24T02:04:56;95587.44;;;21.45;76.61
7182;BME280;3632;42.724;23.298;2023-07-24T02:07:22;95586.88;;;21.64;76.36
7182;BME280;3632;42.724;23.298;2023-07-24T02:09:49;95503.03;;;21.28;75.51
7182;BME280;3632;42.724;23.298;2023-07-24T02:12:16;95581.59;;;21.87;75.21
7182;BME280;3632;42.724;23.298;2023-07-24T02:14:43;95583.09;;;21.81;75.66
7182;BME280;3632;42.724;23.298;2023-07-24T02:17:09;95586.53;;;21.97;74.69
7182;BME280;3632;42.724;23.298;2023-07-24T02:19:37;95579.19;;;22.00;74.43
7182;BME280;3632;42.724;23.298;2023-07-24T02:22:04;95587.25;;;21.76;75.84
7182;BME280;3632;42.724;23.298;2023-07-24T02:24:31;95571.25;;;21.72;75.84
7182;BME280;3632;42.724;23.298;2023-07-24T02:26:58;95546.66;;;21.24;77.45
7182;BME280;3632;42.724;23.298;2023-07-24T02:29:24;95568.03;;;21.41;78.28
7182;BME280;3632;42.724;23.298;2023-07-24T02:31:53;95578.31;;;21.64;77.14
7182;BME280;3632;42.724;23.298;2023-07-24T02:34:20;95574.88;;;21.78;76.00
7182;BME280;3632;42.724;23.298;2023-07-24T02:36:53;95570.72;;;21.62;76.41
7182;BME280;3632;42.724;23.298;2023-07-24T02:39:19;95570.06;;;21.60;76.45
7182;BME280;3632;42.724;23.298;2023-07-24T02:41:47;95576.97;;;21.68;75.89
7182;BME280;3632;42.724;23.298;2023-07-24T02:44:14;95570.59;;;21.56;75.93
7182;BME280;3632;42.724;23.298;2023-07-24T02:46:41;95579.66;;;21.45;76.09
7182;BME280;3632;42.724;23.298;2023-07-24T02:49:07;95572.22;;;21.27;76.89
7182;BME280;3632;42.724;23.298;2023-07-24T02:51:34;95577.22;;;21.14;77.58
7182;BME280;3632;42.724;23.298;2023-07-24T02:54:02;95468.91;;;20.43;78.33
7182;BME280;3632;42.724;23.298;2023-07-24T02:56:30;95593.75;;;21.13;78.51
7182;BME280;3632;42.724;23.298;2023-07-24T02:58:56;95572.41;;;21.40;77.67
7182;BME280;3632;42.724;23.298;2023-07-24T03:01:23;95464.13;;;20.69;76.45
7182;BME280;3632;42.724;23.298;2023-07-24T03:03:50;95570.28;;;21.29;77.21
7182;BME280;3632;42.724;23.298;2023-07-24T03:06:16;95565.13;;;21.07;77.51
7182;BME280;3632;42.724;23.298;2023-07-24T03:08:43;95500.78;;;20.95;76.67
7182;BME280;3632;42.724;23.298;2023-07-24T03:11:11;95572.75;;;21.67;75.23
7182;BME280;3632;42.724;23.298;2023-07-24T03:13:38;95555.75;;;21.64;74.70
7182;BME280;3632;42.724;23.298;2023-07-24T03:16:06;95583.09;;;21.81;74.52
7182;BME280;3632;42.724;23.298;2023-07-24T03:18:33;95518.72;;;21.56;73.93
7182;BME280;3632;42.724;23.298;2023-07-24T03:20:59;95571.56;;;21.84;74.27
7182;BME280;3632;42.724;23.298;2023-07-24T03:23:26;95579.66;;;21.60;75.44
7182;BME280;3632;42.724;23.298;2023-07-24T03:25:53;95568.72;;;21.64;74.87
7182;BME280;3632;42.724;23.298;2023-07-24T03:28:21;95494.53;;;21.05;75.46
7182;BME280;3632;42.724;23.298;2023-07-24T03:30:48;95514.56;;;20.96;76.35
7182;BME280;3632;42.724;23.298;2023-07-24T03:33:15;95573.56;;;21.53;75.92
7182;BME280;3632;42.724;23.298;2023-07-24T03:35:42;95527.72;;;21.24;74.78
7182;BME280;3632;42.724;23.298;2023-07-24T03:38:09;95576.59;;;21.71;74.68
7182;BME280;3632;42.724;23.298;2023-07-24T03:40:35;95572.75;;;21.67;75.22
7182;BME280;3632;42.724;23.298;2023-07-24T03:43:02;95567.56;;;21.67;75.85
7182;BME280;3632;42.724;23.298;2023-07-24T03:45:30;95583.84;;;21.61;76.44
7182;BME280;3632;42.724;23.298;2023-07-24T03:47:57;95574.97;;;21.70;75.50
7182;BME280;3632;42.724;23.298;2023-07-24T03:50:24;95584.28;;;21.79;74.99
7182;BME280;3632;42.724;23.298;2023-07-24T03:52:51;95543.34;;;21.30;75.96
7182;BME280;3632;42.724;23.298;2023-07-24T03:55:17;95534.47;;;20.95;78.10
7182;BME280;3632;42.724;23.298;2023-07-24T03:57:44;95582.41;;;21.14;79.74
7182;BME280;3632;42.724;23.298;2023-07-24T04:00:12;95604.75;;;21.15;79.49
7182;BME280;3632;42.724;23.298;2023-07-24T04:02:40;95556.25;;;21.01;79.50
7182;BME280;3632;42.724;23.298;2023-07-24T04:05:07;95581.50;;;21.22;79.60
7182;BME280;3632;42.724;23.298;2023-07-24T04:07:34;95573.28;;;21.18;79.52
7182;BME280;3632;42.724;23.298;2023-07-24T04:10:02;95584.44;;;21.04;81.65
7182;BME280;3632;42.724;23.298;2023-07-24T04:12:29;95600.59;;;21.06;81.58
7182;BME280;3632;42.724;23.298;2023-07-24T04:14:56;95586.63;;;20.78;83.52
7182;BME280;3632;42.724;23.298;2023-07-24T04:17:23;95593.81;;;20.68;83.91
7182;BME280;3632;42.724;23.298;2023-07-24T04:19:51;95552.78;;;20.11;85.45
7182;BME280;3632;42.724;23.298;2023-07-24T04:22:17;95622.38;;;20.29;86.60
7182;BME280;3632;42.724;23.298;2023-07-24T04:24:44;95582.03;;;20.42;86.73
7182;BME280;3632;42.724;23.298;2023-07-24T04:27:11;95649.69;;;20.85;84.73
7182;BME280;3632;42.724;23.298;2023-07-24T04:29:38;95571.59;;;20.88;82.87
7182;BME280;3632;42.724;23.298;2023-07-24T04:32:05;95601.03;;;21.32;81.17
7182;BME280;3632;42.724;23.298;2023-07-24T04:34:32;95595.22;;;21.45;80.20
7182;BME280;3632;42.724;23.298;2023-07-24T04:37:00;95592.00;;;21.58;79.47
7182;BME280;3632;42.724;23.298;2023-07-24T04:39:27;95603.97;;;21.73;78.14
7182;BME280;3632;42.724;23.298;2023-07-24T04:41:54;95596.72;;;21.83;77.62
7182;BME280;3632;42.724;23.298;2023-07-24T04:44:21;95496.44;;;21.25;77.08
7182;BME280;3632;42.724;23.298;2023-07-24T04:46:47;95601.13;;;21.98;77.33
7182;BME280;3632;42.724;23.298;2023-07-24T04:49:14;95603.16;;;22.02;76.93
7182;BME280;3632;42.724;23.298;2023-07-24T04:51:41;95443.03;;;20.72;76.29
7182;BME280;3632;42.724;23.298;2023-07-24T04:54:09;95604.19;;;22.22;75.92
7182;BME280;3632;42.724;23.298;2023-07-24T04:56:36;95611.06;;;22.30;75.94
7182;BME280;3632;42.724;23.298;2023-07-24T04:59:02;95600.72;;;22.37;75.35
7182;BME280;3632;42.724;23.298;2023-07-24T05:01:29;95506.63;;;21.77;74.73
7182;BME280;3632;42.724;23.298;2023-07-24T05:03:56;95605.13;;;22.36;74.90
7182;BME280;3632;42.724;23.298;2023-07-24T05:06:23;95607.78;;;22.43;74.88
7182;BME280;3632;42.724;23.298;2023-07-24T05:08:49;95598.06;;;22.30;75.30
7182;BME280;3632;42.724;23.298;2023-07-24T05:11:18;95607.88;;;22.13;76.27
7182;BME280;3632;42.724;23.298;2023-07-24T05:13:44;95600.91;;;22.14;77.19
7182;BME280;3632;42.724;23.298;2023-07-24T05:16:11;95507.03;;;21.45;78.25
7182;BME280;3632;42.724;23.298;2023-07-24T05:18:38;95551.19;;;21.66;77.49
7182;BME280;3632;42.724;23.298;2023-07-24T05:21:04;95374.09;;;20.71;77.20
7182;BME280;3632;42.724;23.298;2023-07-24T05:23:31;95590.22;;;22.23;77.01
7182;BME280;3632;42.724;23.298;2023-07-24T05:25:58;95596.41;;;22.44;75.77
7182;BME280;3632;42.724;23.298;2023-07-24T05:28:27;95273.69;;;19.71;76.08
7182;BME280;3632;42.724;23.298;2023-07-24T05:30:54;95603.28;;;22.51;75.97
7182;BME280;3632;42.724;23.298;2023-07-24T05:33:21;95595.19;;;22.61;75.80
7182;BME280;3632;42.724;23.298;2023-07-24T05:35:48;95597.09;;;22.52;75.00
7182;BME280;3632;42.724;23.298;2023-07-24T05:38:15;95523.00;;;22.14;74.57
7182;BME280;3632;42.724;23.298;2023-07-24T05:40:42;95589.78;;;22.84;72.99
7182;BME280;3632;42.724;23.298;2023-07-24T05:43:10;95588.53;;;23.01;71.75
7182;BME280;3632;42.724;23.298;2023-07-24T05:45:38;95293.88;;;20.78;71.65
7182;BME280;3632;42.724;23.298;2023-07-24T05:48:05;95424.53;;;22.12;70.67
7182;BME280;3632;42.724;23.298;2023-07-24T05:50:32;95478.41;;;22.53;70.44
7182;BME280;3632;42.724;23.298;2023-07-24T05:52:59;95583.66;;;23.47;69.88
7182;BME280;3632;42.724;23.298;2023-07-24T05:55:25;95584.13;;;23.57;69.68
7182;BME280;3632;42.724;23.298;2023-07-24T05:57:52;95587.13;;;24.01;68.68
7182;BME280;3632;42.724;23.298;2023-07-24T06:00:19;95481.81;;;23.50;67.85
7182;BME280;3632;42.724;23.298;2023-07-24T06:02:47;95337.34;;;22.59;68.17
7182;BME280;3632;42.724;23.298;2023-07-24T06:05:14;95574.19;;;24.21;67.87
7182;BME280;3632;42.724;23.298;2023-07-24T06:07:40;95580.22;;;24.22;67.55
7182;BME280;3632;42.724;23.298;2023-07-24T06:10:08;95576.09;;;23.99;67.84
7182;BME280;3632;42.724;23.298;2023-07-24T06:12:35;95570.31;;;24.10;67.27
7182;BME280;3632;42.724;23.298;2023-07-24T06:15:01;95564.38;;;24.23;66.79
7182;BME280;3632;42.724;23.298;2023-07-24T06:17:28;95568.38;;;24.19;66.89
7182;BME280;3632;42.724;23.298;2023-07-24T06:19:56;95573.19;;;24.29;66.89
7182;BME280;3632;42.724;23.298;2023-07-24T06:22:25;95554.81;;;23.83;67.10
7182;BME280;3632;42.724;23.298;2023-07-24T06:24:52;95571.91;;;24.11;67.46
7182;BME280;3632;42.724;23.298;2023-07-24T06:27:18;95491.72;;;23.81;67.15
7182;BME280;3632;42.724;23.298;2023-07-24T06:29:45;95574.31;;;24.00;67.22
7182;BME280;3632;42.724;23.298;2023-07-24T06:32:12;95564.78;;;24.33;66.46
7182;BME280;3632;42.724;23.298;2023-07-24T06:34:39;95568.03;;;24.42;65.98
7182;BME280;3632;42.724;23.298;2023-07-24T06:37:07;95566.44;;;24.54;66.23
7182;BME280;3632;42.724;23.298;2023-07-24T06:39:33;95572.25;;;24.56;66.68
7182;BME280;3632;42.724;23.298;2023-07-24T06:42:00;95172.06;;;21.97;66.49
7182;BME280;3632;42.724;23.298;2023-07-24T06:44:27;95461.28;;;23.81;67.16
7182;BME280;3632;42.724;23.298;2023-07-24T06:46:54;95563.63;;;24.75;66.69
7182;BME280;3632;42.724;23.298;2023-07-24T06:49:21;95552.41;;;24.68;67.23
7182;BME280;3632;42.724;23.298;2023-07-24T06:51:47;95532.38;;;24.69;66.95
7182;BME280;3632;42.724;23.298;2023-07-24T06:54:15;95556.78;;;25.40;65.28
7182;BME280;3632;42.724;23.298;2023-07-24T06:56:42;95562.56;;;25.42;61.43
7182;BME280;3632;42.724;23.298;2023-07-24T06:59:09;95567.25;;;25.27;64.13
7182;BME280;3632;42.724;23.298;2023-07-24T07:01:36;95575.28;;;25.19;62.79
7182;BME280;3632;42.724;23.298;2023-07-24T07:04:03;95560.81;;;24.83;64.00
7182;BME280;3632;42.724;23.298;2023-07-24T07:06:30;95564.06;;;24.98;64.61
7182;BME280;3632;42.724;23.298;2023-07-24T07:08:56;95570.88;;;24.93;64.94
7182;BME280;3632;42.724;23.298;2023-07-24T07:11:25;95571.25;;;24.83;65.29
7182;BME280;3632;42.724;23.298;2023-07-24T07:13:51;95566.84;;;24.64;66.19
7182;BME280;3632;42.724;23.298;2023-07-24T07:16:18;95513.69;;;24.26;66.24
7182;BME280;3632;42.724;23.298;2023-07-24T07:18:45;95571.06;;;24.65;66.02
7182;BME280;3632;42.724;23.298;2023-07-24T07:21:12;95486.66;;;24.46;66.92
7182;BME280;3632;42.724;23.298;2023-07-24T07:23:42;95379.78;;;23.81;64.13
7182;BME280;3632;42.724;23.298;2023-07-24T07:26:09;95556.25;;;24.98;66.03
7182;BME280;3632;42.724;23.298;2023-07-24T07:28:37;95549.97;;;25.32;65.68
7182;BME280;3632;42.724;23.298;2023-07-24T07:31:07;95551.16;;;25.36;63.19
7182;BME280;3632;42.724;23.298;2023-07-24T07:33:33;95550.56;;;25.34;64.42
7182;BME280;3632;42.724;23.298;2023-07-24T07:36:00;95547.16;;;25.40;64.38
7182;BME280;3632;42.724;23.298;2023-07-24T07:38:27;95564.47;;;25.92;62.80
7182;BME280;3632;42.724;23.298;2023-07-24T07:40:54;95368.72;;;24.77;61.77
7182;BME280;3632;42.724;23.298;2023-07-24T07:43:24;95585.59;;;25.78;61.41
7182;BME280;3632;42.724;23.298;2023-07-24T07:45:52;95492.91;;;25.49;60.73
7182;BME280;3632;42.724;23.298;2023-07-24T07:48:18;95536.13;;;25.89;62.42
7182;BME280;3632;42.724;23.298;2023-07-24T07:50:50;95536.75;;;26.29;62.83
7182;BME280;3632;42.724;23.298;2023-07-24T07:53:16;95528.38;;;26.21;59.04
7182;BME280;3632;42.724;23.298;2023-07-24T07:55:44;95503.59;;;25.92;61.20
7182;BME280;3632;42.724;23.298;2023-07-24T07:58:10;95530.72;;;26.29;61.40
7182;BME280;3632;42.724;23.298;2023-07-24T08:00:37;95536.88;;;26.41;60.89
7182;BME280;3632;42.724;23.298;2023-07-24T08:03:06;95145.44;;;24.13;61.10
7182;BME280;3632;42.724;23.298;2023-07-24T08:05:33;95541.00;;;26.55;59.09
7182;BME280;3632;42.724;23.298;2023-07-24T08:08:00;95540.75;;;26.63;58.66
7182;BME280;3632;42.724;23.298;2023-07-24T08:10:27;95535.25;;;26.71;60.41
7182;BME280;3632;42.724;23.298;2023-07-24T08:12:53;95534.53;;;26.89;58.78
7182;BME280;3632;42.724;23.298;2023-07-24T08:15:20;95246.50;;;25.00;57.66
7182;BME280;3632;42.724;23.298;2023-07-24T08:17:47;95412.06;;;26.36;57.24
7182;BME280;3632;42.724;23.298;2023-07-24T08:20:15;95528.41;;;27.20;56.63
7182;BME280;3632;42.724;23.298;2023-07-24T08:22:42;95524.75;;;27.21;55.12
7182;BME280;3632;42.724;23.298;2023-07-24T08:25:09;95233.72;;;25.24;54.48
7182;BME280;3632;42.724;23.298;2023-07-24T08:27:36;95510.59;;;27.28;55.11
7182;BME280;3632;42.724;23.298;2023-07-24T08:30:03;95513.00;;;27.30;54.23
7182;BME280;3632;42.724;23.298;2023-07-24T08:32:30;95513.16;;;27.35;53.53
7182;BME280;3632;42.724;23.298;2023-07-24T08:34:56;95494.09;;;27.28;53.69
7182;BME280;3632;42.724;23.298;2023-07-24T08:37:25;95184.84;;;25.37;53.10
7182;BME280;3632;42.724;23.298;2023-07-24T08:39:51;95501.72;;;27.30;53.59
7182;BME280;3632;42.724;23.298;2023-07-24T08:42:18;95503.78;;;27.27;52.70
7182;BME280;3632;42.724;23.298;2023-07-24T08:44:46;95505.34;;;27.28;52.20
7182;BME280;3632;42.724;23.298;2023-07-24T08:47:13;95494.53;;;27.43;54.08
7182;BME280;3632;42.724;23.298;2023-07-24T08:49:42;95422.44;;;27.11;53.84
7182;BME280;3632;42.724;23.298;2023-07-24T08:52:10;95493.22;;;27.70;54.19
7182;BME280;3632;42.724;23.298;2023-07-24T08:54:38;95121.38;;;25.19;54.49
7182;BME280;3632;42.724;23.298;2023-07-24T08:57:06;95494.59;;;28.03;53.89
7182;BME280;3632;42.724;23.298;2023-07-24T08:59:34;95271.78;;;26.67;55.10
7182;BME280;3632;42.724;23.298;2023-07-24T09:02:01;95492.09;;;28.26;51.96
7182;BME280;3632;42.724;23.298;2023-07-24T09:04:28;95493.78;;;28.21;52.87
7182;BME280;3632;42.724;23.298;2023-07-24T09:06:56;95265.59;;;26.79;50.29
7182;BME280;3632;42.724;23.298;2023-07-24T09:09:23;95483.91;;;28.34;50.93
7182;BME280;3632;42.724;23.298;2023-07-24T09:11:53;95480.63;;;28.39;51.46
7182;BME280;3632;42.724;23.298;2023-07-24T09:14:21;95482.47;;;28.73;51.96
7182;BME280;3632;42.724;23.298;2023-07-24T09:16:48;95433.41;;;28.50;50.38
7182;BME280;3632;42.724;23.298;2023-07-24T09:19:18;95474.72;;;29.13;50.58
7182;BME280;3632;42.724;23.298;2023-07-24T09:21:45;95479.28;;;29.29;50.52
7182;BME280;3632;42.724;23.298;2023-07-24T09:24:13;95318.06;;;28.39;48.78
7182;BME280;3632;42.724;23.298;2023-07-24T09:26:51;95458.66;;;29.61;49.19
7182;BME280;3632;42.724;23.298;2023-07-24T09:29:18;95424.34;;;29.39;48.05
7182;BME280;3632;42.724;23.298;2023-07-24T09:31:45;95450.66;;;29.96;48.65
7182;BME280;3632;42.724;23.298;2023-07-24T09:34:18;95441.72;;;29.97;47.33
7182;BME280;3632;42.724;23.298;2023-07-24T09:36:45;95343.09;;;29.61;49.44
7182;BME280;3632;42.724;23.298;2023-07-24T09:39:12;95291.47;;;29.38;48.40
7182;BME280;3632;42.724;23.298;2023-07-24T09:41:39;95357.91;;;29.84;47.17
7182;BME280;3632;42.724;23.298;2023-07-24T09:44:11;95410.16;;;30.25;47.07
7182;BME280;3632;42.724;23.298;2023-07-24T09:46:38;95428.69;;;30.85;47.67
7182;BME280;3632;42.724;23.298;2023-07-24T09:49:05;95063.56;;;28.29;45.45
7182;BME280;3632;42.724;23.298;2023-07-24T09:51:32;95418.38;;;30.46;45.35
7182;BME280;3632;42.724;23.298;2023-07-24T09:54:04;95421.34;;;30.88;45.04
7182;BME280;3632;42.724;23.298;2023-07-24T09:56:33;95290.22;;;29.58;43.17
7182;BME280;3632;42.724;23.298;2023-07-24T09:59:02;95417.84;;;30.82;42.89
7182;BME280;3632;42.724;23.298;2023-07-24T10:01:31;95329.16;;;30.27;42.78
7182;BME280;3632;42.724;23.298;2023-07-24T10:03:59;95411.44;;;30.95;43.07
7182;BME280;3632;42.724;23.298;2023-07-24T10:06:28;95405.91;;;31.13;43.42
7182;BME280;3632;42.724;23.298;2023-07-24T10:08:56;95285.50;;;30.65;42.94
7182;BME280;3632;42.724;23.298;2023-07-24T10:11:24;95248.91;;;30.42;43.63
7182;BME280;3632;42.724;23.298;2023-07-24T10:13:52;95358.72;;;31.55;43.92
7182;BME280;3632;42.724;23.298;2023-07-24T10:16:20;95127.81;;;29.71;44.63
7182;BME280;3632;42.724;23.298;2023-07-24T10:18:48;95394.97;;;31.96;44.87
7182;BME280;3632;42.724;23.298;2023-07-24T10:21:15;95384.59;;;32.11;42.82
7182;BME280;3632;42.724;23.298;2023-07-24T10:23:44;95334.44;;;31.80;41.76
7182;BME280;3632;42.724;23.298;2023-07-24T10:26:11;95378.50;;;32.11;41.84
7182;BME280;3632;42.724;23.298;2023-07-24T10:28:40;95377.50;;;32.54;41.72
7182;BME280;3632;42.724;23.298;2023-07-24T10:31:22;95380.81;;;32.76;40.73
7182;BME280;3632;42.724;23.298;2023-07-24T10:33:50;95359.84;;;33.01;41.75
7182;BME280;3632;42.724;23.298;2023-07-24T10:36:18;95366.81;;;33.28;41.29
7182;BME280;3632;42.724;23.298;2023-07-24T10:38:51;95415.75;;;33.35;41.91
7182;BME280;3632;42.724;23.298;2023-07-24T10:41:18;95314.53;;;33.30;39.61
7182;BME280;3632;42.724;23.298;2023-07-24T10:43:46;95366.69;;;33.95;38.90
7182;BME280;3632;42.724;23.298;2023-07-24T10:46:14;95367.00;;;33.99;39.71
7182;BME280;3632;42.724;23.298;2023-07-24T10:48:42;95352.16;;;33.97;38.97
7182;BME280;3632;42.724;23.298;2023-07-24T10:51:11;95358.16;;;33.58;39.51
7182;BME280;3632;42.724;23.298;2023-07-24T10:53:43;95344.78;;;33.94;40.08
7182;BME280;3632;42.724;23.298;2023-07-24T10:56:10;95150.66;;;32.17;39.51
7182;BME280;3632;42.724;23.298;2023-07-24T10:58:37;95338.66;;;34.04;38.33
7182;BME280;3632;42.724;23.298;2023-07-24T11:01:04;95365.69;;;34.16;39.38
7182;BME280;3632;42.724;23.298;2023-07-24T11:03:59;95241.91;;;33.78;39.74
7182;BME280;3632;42.724;23.298;2023-07-24T11:06:32;95198.78;;;33.62;36.14
7182;BME280;3632;42.724;23.298;2023-07-24T11:09:02;95337.06;;;34.44;35.16
7182;BME280;3632;42.724;23.298;2023-07-24T11:11:29;95329.38;;;34.47;34.76
7182;BME280;3632;42.724;23.298;2023-07-24T11:13:57;95323.81;;;34.74;35.40
7182;BME280;3632;42.724;23.298;2023-07-24T11:16:25;95265.13;;;34.31;35.44
7182;BME280;3632;42.724;23.298;2023-07-24T11:18:52;95325.66;;;34.68;36.05
7182;BME280;3632;42.724;23.298;2023-07-24T11:21:20;95330.94;;;34.63;36.56
7182;BME280;3632;42.724;23.298;2023-07-24T11:23:51;95314.47;;;34.92;37.78
7182;BME280;3632;42.724;23.298;2023-07-24T11:26:19;95320.06;;;34.80;35.00
7182;BME280;3632;42.724;23.298;2023-07-24T11:28:46;95307.22;;;35.07;36.49
7182;BME280;3632;42.724;23.298;2023-07-24T11:31:15;95307.06;;;35.43;37.82
7182;BME280;3632;42.724;23.298;2023-07-24T11:33:48;95309.19;;;35.85;36.56
7182;BME280;3632;42.724;23.298;2023-07-24T11:36:15;95282.31;;;35.91;34.90
7182;BME280;3632;42.724;23.298;2023-07-24T11:38:48;95266.16;;;35.93;35.10
7182;BME280;3632;42.724;23.298;2023-07-24T11:41:16;95137.34;;;35.14;34.52
7182;BME280;3632;42.724;23.298;2023-07-24T11:43:47;95298.06;;;35.83;34.79
7182;BME280;3632;42.724;23.298;2023-07-24T11:46:22;95239.91;;;35.52;35.14
7182;BME280;3632;42.724;23.298;2023-07-24T11:48:52;94921.00;;;33.53;34.93
7182;BME280;3632;42.724;23.298;2023-07-24T11:51:25;95276.16;;;36.01;34.69
7182;BME280;3632;42.724;23.298;2023-07-24T11:54:05;95294.34;;;36.41;33.94
7182;BME280;3632;42.724;23.298;2023-07-24T11:56:32;95296.97;;;36.46;32.91
7182;BME280;3632;42.724;23.298;2023-07-24T11:59:09;95280.84;;;36.38;32.72
7182;BME280;3632;42.724;23.298;2023-07-24T12:01:35;95283.03;;;36.59;32.61
7182;BME280;3632;42.724;23.298;2023-07-24T12:04:03;95280.91;;;36.56;33.09
7182;BME280;3632;42.724;23.298;2023-07-24T12:06:30;95285.22;;;35.95;33.48
7182;BME280;3632;42.724;23.298;2023-07-24T12:09:03;95288.84;;;36.04;33.13
7182;BME280;3632;42.724;23.298;2023-07-24T12:11:31;95273.38;;;36.16;34.60
7182;BME280;3632;42.724;23.298;2023-07-24T12:13:58;95275.22;;;36.44;34.26
7182;BME280;3632;42.724;23.298;2023-07-24T12:16:24;95245.75;;;36.70;35.64
7182;BME280;3632;42.724;23.298;2023-07-24T12:18:51;95044.69;;;35.61;33.29
7182;BME280;3632;42.724;23.298;2023-07-24T12:21:18;95270.81;;;36.82;32.83
7182;BME280;3632;42.724;23.298;2023-07-24T12:23:45;95270.91;;;36.25;31.77
7182;BME280;3632;42.724;23.298;2023-07-24T12:26:13;95268.00;;;35.92;33.41
7182;BME280;3632;42.724;23.298;2023-07-24T12:28:39;95267.16;;;35.68;35.73
7182;BME280;3632;42.724;23.298;2023-07-24T12:31:06;95213.78;;;35.74;34.00
7182;BME280;3632;42.724;23.298;2023-07-24T12:33:33;95198.03;;;35.83;34.40
7182;BME280;3632;42.724;23.298;2023-07-24T12:36:00;95259.13;;;36.59;33.50
7182;BME280;3632;42.724;23.298;2023-07-24T12:38:27;94967.06;;;35.08;33.38
7182;BME280;3632;42.724;23.298;2023-07-24T12:40:53;95113.34;;;35.68;34.50
7182;BME280;3632;42.724;23.298;2023-07-24T12:43:22;95096.69;;;36.52;31.85
7182;BME280;3632;42.724;23.298;2023-07-24T12:45:49;95038.72;;;35.98;30.84
7182;BME280;3632;42.724;23.298;2023-07-24T12:48:15;95238.44;;;37.74;31.27
7182;BME280;3632;42.724;23.298;2023-07-24T12:50:42;95234.72;;;37.88;30.31
7182;BME280;3632;42.724;23.298;2023-07-24T12:53:09;95086.13;;;36.47;30.42
7182;BME280;3632;42.724;23.298;2023-07-24T12:55:36;95232.91;;;37.70;30.56
7182;BME280;3632;42.724;23.298;2023-07-24T12:58:03;95093.50;;;36.88;31.61
7182;BME280;3632;42.724;23.298;2023-07-24T13:00:31;94904.84;;;35.48;30.39
7182;BME280;3632;42.724;23.298;2023-07-24T13:02:58;95143.59;;;37.50;30.14
7182;BME280;3632;42.724;23.298;2023-07-24T13:05:24;95227.16;;;37.95;29.90
7182;BME280;3632;42.724;23.298;2023-07-24T13:07:51;95167.94;;;37.58;31.41
7182;BME280;3632;42.724;23.298;2023-07-24T13:10:18;94961.94;;;36.44;30.05
7182;BME280;3632;42.724;23.298;2023-07-24T13:12:44;95166.38;;;38.57;28.07